NCAR-RAP Real-Time Weather Data

Output produced by METARs form (16 August 2018  19:24 UTC)
found at http://weather.rap.ucar.edu/surface/
 
RJNW 161000Z 35004KT 280V040 9999 FEW000 SCT020 BKN025 21/21 Q1009
RJNW 160900Z VRB03KT 9999 -SHRA FEW000 SCT020 BKN025 21/21 Q1008
RJNW 160800Z 35003KT 260V050 5000 -SHRA BR FEW000 SCT010 BKN035 22/22 Q1007
RJNW 160700Z 31003KT 250V010 7000 FEW000 SCT007 BKN035 22/22 Q1007
RJNW 160600Z 22005KT 5000 BR FEW000 SCT004 BKN007 22/22 Q1007
RJNW 160500Z 22005KT 9999 VCSH FEW000 SCT006 BKN010 22/22 Q1007
RJNW 160400Z 21004KT 3000 SHRA BR FEW000 SCT005 BKN010 22/22 Q1007
RJNW 160300Z 17003KT 8000 -SHRA FEW002 SCT030 BKN040 22/22 Q1007
RJNW 160200Z 26005KT 220V290 2000 R25/0800VP1800D +SHRA BR FEW004 SCT006 BKN010 22/22 Q1007
RJNW 160100Z 29005KT 230V330 2500 R25/1300VP1800D SHRA BR FEW001 SCT004 BKN010 22/22 Q1007
RJNW 160000Z 27011KT 240V310 0500 R25/0250V0550U +SHRA FG FEW004 SCT006 BKN010 23/23 Q1007
RJNW 152300Z 23018KT 9999 VCSH FEW025 SCT030 BKN040 27/24 Q1006
RJNW 151000Z 12003KT 090V150 9999 FEW030 SCT070 BKN150 27/26 Q1011
RJNW 150900Z 16003KT 130V200 9999 FEW030 SCT050 BKN070 28/26 Q1011
RJNW 150800Z 13007KT 9999 VCSH FEW030 SCT050 BKN070 28/26 Q1012
RJNW 150700Z 23006KT 200V270 9999 VCSH FEW030 SCT070 BKN170 30/24 Q1011
RJNW 150600Z 22005KT 190V290 9999 FEW030 SCT070 BKN100 31/24 Q1011
RJNW 150500Z 27004KT 240V330 9999 FEW030 BKN070 BKN100 32/22 Q1012
RJNW 150400Z 27008KT 9999 FEW030 SCT080 BKN100 32/23 Q1012
RJNW 150300Z 19004KT 100V260 9999 FEW030 SCT100 BKN/// 32/23 Q1013
RJNW 150200Z 18005KT 100V240 9999 FEW030 BKN/// 31/22 Q1013
RJNW 150100Z 09007KT 9999 FEW030 BKN/// 31/24 Q1013
RJNW 150000Z 10005KT 050V130 9999 FEW030 BKN/// 31/24 Q1013
RJNW 142300Z 09004KT 060V140 9999 FEW030 BKN/// 29/24 Q1014
RJNW 141000Z 12003KT 9999 FEW008 SCT/// 26/26 Q1014
RJNW 140900Z 13005KT 9999 FEW008 SCT020 BKN/// 27/27 Q1013
RJNW 140800Z 12004KT 060V170 9999 FEW010 SCT015 BKN020 29/28 Q1013